BRU168 EPWA-UMMS
Flight info
| Callsign | BRU168 |
|---|---|
| Flight time | 1h 4m |
| Altitude | 31000 |
| Route | BAMSO Z182 ASLUX M863 RUDKA/K0828F310 T174 HOFTI T397 KIZIR KIZIR2E |
| Aircraft | B38M/M-SDE1FGHILORVWXY/HB1 |
Departure
| Time | 2026-05-06 13:23 |
|---|---|
| Airport | Warsaw Chopin Airport (EPWA) |
Arrival
| Time | 2026-05-06 14:27 |
|---|---|
| Airport | Minsk National Airport (UMMS) |
| Time | Latitude | Longitude | Altitude | Speed | Heading |
|---|---|---|---|---|---|
| 2026-05-06 12:46 | 52.16828 | 20.96991 | 334 ft | 0 kts | 277° |
| 2026-05-06 13:16 | 52.16830 | 20.96969 | 334 ft | 4 kts | 277° |
| 2026-05-06 13:16 | 52.16820 | 20.96915 | 333 ft | 3 kts | 226° |
| 2026-05-06 13:16 | 52.16795 | 20.96919 | 333 ft | 3 kts | 154° |
| 2026-05-06 13:17 | 52.16774 | 20.96936 | 333 ft | 4 kts | 153° |
| 2026-05-06 13:17 | 52.16742 | 20.96964 | 334 ft | 6 kts | 153° |
| 2026-05-06 13:17 | 52.16698 | 20.97002 | 334 ft | 8 kts | 151° |
| 2026-05-06 13:17 | 52.16637 | 20.97056 | 335 ft | 8 kts | 143° |
| 2026-05-06 13:18 | 52.16633 | 20.97143 | 337 ft | 8 kts | 96° |
| 2026-05-06 13:18 | 52.16608 | 20.97248 | 338 ft | 12 kts | 114° |
| 2026-05-06 13:18 | 52.16565 | 20.97397 | 338 ft | 16 kts | 116° |
| 2026-05-06 13:18 | 52.16513 | 20.97584 | 338 ft | 17 kts | 114° |
| 2026-05-06 13:19 | 52.16464 | 20.97759 | 337 ft | 15 kts | 115° |
| 2026-05-06 13:19 | 52.16431 | 20.97812 | 336 ft | 4 kts | 187° |
| 2026-05-06 13:19 | 52.16393 | 20.97792 | 336 ft | 5 kts | 205° |
| 2026-05-06 13:19 | 52.16356 | 20.97762 | 335 ft | 6 kts | 208° |
| 2026-05-06 13:20 | 52.16317 | 20.97728 | 334 ft | 7 kts | 208° |
| 2026-05-06 13:20 | 52.16307 | 20.97668 | 334 ft | 5 kts | 287° |
| 2026-05-06 13:20 | 52.16318 | 20.97626 | 335 ft | 2 kts | 296° |
| 2026-05-06 13:20 | 52.16329 | 20.97591 | 336 ft | 2 kts | 295° |
| 2026-05-06 13:21 | 52.16329 | 20.97590 | 336 ft | 0 kts | 295° |
| 2026-05-06 13:21 | 52.16331 | 20.97586 | 336 ft | 3 kts | 295° |
| 2026-05-06 13:22 | 52.16414 | 20.97278 | 338 ft | 63 kts | 292° |
| 2026-05-06 13:22 | 52.16687 | 20.96310 | 335 ft | 122 kts | 296° |
| 2026-05-06 13:22 | 52.17108 | 20.94818 | 373 ft | 164 kts | 293° |
| 2026-05-06 13:22 | 52.17601 | 20.93099 | 861 ft | 171 kts | 292° |
| 2026-05-06 13:23 | 52.18100 | 20.91353 | 1530 ft | 178 kts | 292° |
| 2026-05-06 13:23 | 52.18711 | 20.89625 | 2348 ft | 183 kts | 313° |
| 2026-05-06 13:23 | 52.19833 | 20.88721 | 3204 ft | 186 kts | 347° |
| 2026-05-06 13:23 | 52.21112 | 20.88356 | 3889 ft | 195 kts | 342° |
| 2026-05-06 13:24 | 52.22376 | 20.87390 | 4384 ft | 211 kts | 316° |
| 2026-05-06 13:24 | 52.23401 | 20.85559 | 4853 ft | 233 kts | 304° |
| 2026-05-06 13:24 | 52.24464 | 20.83392 | 5448 ft | 254 kts | 307° |
| 2026-05-06 13:24 | 52.25672 | 20.81255 | 6178 ft | 268 kts | 313° |
| 2026-05-06 13:25 | 52.27256 | 20.79525 | 6982 ft | 283 kts | 336° |
| 2026-05-06 13:25 | 52.29167 | 20.78829 | 7895 ft | 290 kts | 355° |
| 2026-05-06 13:25 | 52.31160 | 20.79221 | 8753 ft | 298 kts | 17° |
| 2026-05-06 13:25 | 52.33007 | 20.80755 | 9630 ft | 303 kts | 37° |
| 2026-05-06 13:26 | 52.34521 | 20.83165 | 10253 ft | 316 kts | 54° |
| 2026-05-06 13:26 | 52.35598 | 20.86364 | 10652 ft | 335 kts | 72° |
| 2026-05-06 13:26 | 52.36060 | 20.90192 | 10977 ft | 354 kts | 92° |
| 2026-05-06 13:26 | 52.35784 | 20.94235 | 11562 ft | 362 kts | 106° |
| 2026-05-06 13:27 | 52.35092 | 20.98221 | 12260 ft | 369 kts | 109° |
| 2026-05-06 13:27 | 52.34547 | 21.02317 | 13051 ft | 376 kts | 101° |
| 2026-05-06 13:27 | 52.34331 | 21.06662 | 13829 ft | 383 kts | 95° |
| 2026-05-06 13:27 | 52.34463 | 21.11015 | 14581 ft | 391 kts | 84° |
| 2026-05-06 13:28 | 52.35007 | 21.15346 | 15335 ft | 396 kts | 78° |
| 2026-05-06 13:28 | 52.35764 | 21.19679 | 16048 ft | 402 kts | 75° |
| 2026-05-06 13:28 | 52.36598 | 21.24058 | 16751 ft | 406 kts | 75° |
| 2026-05-06 13:28 | 52.37420 | 21.28511 | 17440 ft | 410 kts | 77° |
| 2026-05-06 13:29 | 52.37951 | 21.33116 | 18109 ft | 411 kts | 88° |
| 2026-05-06 13:29 | 52.37987 | 21.37798 | 18799 ft | 410 kts | 97° |
| 2026-05-06 13:29 | 52.37707 | 21.42428 | 19451 ft | 412 kts | 101° |
| 2026-05-06 13:29 | 52.37295 | 21.47065 | 20073 ft | 416 kts | 102° |
| 2026-05-06 13:30 | 52.36848 | 21.51763 | 20694 ft | 420 kts | 102° |
| 2026-05-06 13:30 | 52.36409 | 21.56500 | 21299 ft | 424 kts | 101° |
| 2026-05-06 13:30 | 52.35989 | 21.61279 | 21882 ft | 428 kts | 101° |
| 2026-05-06 13:30 | 52.35580 | 21.66122 | 22457 ft | 431 kts | 101° |
| 2026-05-06 13:31 | 52.35177 | 21.71032 | 23014 ft | 435 kts | 101° |
| 2026-05-06 13:31 | 52.34777 | 21.75973 | 23561 ft | 439 kts | 101° |
| 2026-05-06 13:31 | 52.34382 | 21.80897 | 24095 ft | 442 kts | 101° |
| 2026-05-06 13:31 | 52.33981 | 21.85912 | 24622 ft | 445 kts | 101° |
| 2026-05-06 13:32 | 52.33580 | 21.90904 | 25126 ft | 448 kts | 100° |
| 2026-05-06 13:32 | 52.33198 | 21.95978 | 25622 ft | 452 kts | 99° |
| 2026-05-06 13:32 | 52.32861 | 22.01123 | 26118 ft | 455 kts | 98° |
| 2026-05-06 13:32 | 52.32554 | 22.06292 | 26607 ft | 458 kts | 98° |
| 2026-05-06 13:33 | 52.32338 | 22.11466 | 27072 ft | 463 kts | 93° |
| 2026-05-06 13:33 | 52.32496 | 22.16761 | 27539 ft | 469 kts | 85° |
| 2026-05-06 13:33 | 52.33073 | 22.21946 | 28007 ft | 474 kts | 78° |
| 2026-05-06 13:33 | 52.33926 | 22.27196 | 28566 ft | 474 kts | 75° |
| 2026-05-06 13:34 | 52.34900 | 22.32391 | 29166 ft | 472 kts | 73° |
| 2026-05-06 13:34 | 52.35899 | 22.37463 | 29752 ft | 471 kts | 73° |
| 2026-05-06 13:34 | 52.36902 | 22.42514 | 30367 ft | 469 kts | 73° |
| 2026-05-06 13:34 | 52.37906 | 22.47627 | 30807 ft | 472 kts | 73° |
| 2026-05-06 13:35 | 52.38900 | 22.52773 | 30783 ft | 478 kts | 74° |
| 2026-05-06 13:35 | 52.40818 | 22.62916 | 30777 ft | 458 kts | 74° |
| 2026-05-06 13:36 | 52.42667 | 22.72889 | 30784 ft | 460 kts | 75° |
| 2026-05-06 13:36 | 52.44520 | 22.83017 | 30784 ft | 464 kts | 75° |
| 2026-05-06 13:37 | 52.46442 | 22.93068 | 30783 ft | 462 kts | 71° |
| 2026-05-06 13:37 | 52.49188 | 23.02541 | 30783 ft | 463 kts | 60° |
| 2026-05-06 13:38 | 52.52711 | 23.11402 | 30784 ft | 463 kts | 56° |
| 2026-05-06 13:38 | 52.56385 | 23.20083 | 30784 ft | 462 kts | 56° |
| 2026-05-06 13:39 | 52.59991 | 23.28774 | 30783 ft | 461 kts | 56° |
| 2026-05-06 13:39 | 52.63530 | 23.37502 | 30782 ft | 460 kts | 57° |
| 2026-05-06 13:40 | 52.67067 | 23.46340 | 30782 ft | 460 kts | 57° |
| 2026-05-06 13:40 | 52.70568 | 23.55145 | 30781 ft | 460 kts | 57° |
| 2026-05-06 13:41 | 52.74041 | 23.63917 | 30782 ft | 459 kts | 57° |
| 2026-05-06 13:41 | 52.77527 | 23.72755 | 30781 ft | 458 kts | 57° |
| 2026-05-06 13:42 | 52.80988 | 23.81557 | 30780 ft | 458 kts | 57° |
| 2026-05-06 13:42 | 52.84462 | 23.90418 | 30780 ft | 459 kts | 57° |
| 2026-05-06 13:43 | 52.87912 | 23.99321 | 30783 ft | 459 kts | 58° |
| 2026-05-06 13:43 | 52.91291 | 24.08220 | 30783 ft | 459 kts | 58° |
| 2026-05-06 13:44 | 52.94663 | 24.17159 | 30786 ft | 458 kts | 58° |
| 2026-05-06 13:44 | 52.98092 | 24.26061 | 30788 ft | 456 kts | 57° |
| 2026-05-06 13:45 | 53.01544 | 24.34852 | 30788 ft | 456 kts | 57° |
| 2026-05-06 13:45 | 53.06743 | 24.48135 | 30788 ft | 457 kts | 57° |
| 2026-05-06 13:46 | 53.10207 | 24.57054 | 30786 ft | 458 kts | 57° |
| 2026-05-06 13:46 | 53.13646 | 24.65955 | 30785 ft | 458 kts | 58° |
| 2026-05-06 13:47 | 53.17064 | 24.74839 | 30781 ft | 458 kts | 58° |
| 2026-05-06 13:47 | 53.20501 | 24.83803 | 30782 ft | 458 kts | 58° |
| 2026-05-06 13:48 | 53.23914 | 24.92737 | 30783 ft | 458 kts | 58° |
| 2026-05-06 13:48 | 53.27320 | 25.01687 | 30783 ft | 458 kts | 58° |
| 2026-05-06 13:49 | 53.30701 | 25.10655 | 30783 ft | 458 kts | 58° |
| 2026-05-06 13:49 | 53.34089 | 25.19699 | 30784 ft | 458 kts | 58° |
| 2026-05-06 13:50 | 53.37463 | 25.28740 | 30785 ft | 458 kts | 58° |
| 2026-05-06 13:50 | 53.40818 | 25.37757 | 30676 ft | 454 kts | 58° |
| 2026-05-06 13:51 | 53.42473 | 25.42215 | 30252 ft | 453 kts | 58° |
| 2026-05-06 13:51 | 53.44135 | 25.46699 | 29776 ft | 453 kts | 58° |
| 2026-05-06 13:51 | 53.45775 | 25.51132 | 29163 ft | 449 kts | 58° |
| 2026-05-06 13:51 | 53.47405 | 25.55543 | 28557 ft | 442 kts | 58° |
| 2026-05-06 13:52 | 53.49009 | 25.59890 | 27976 ft | 438 kts | 58° |
| 2026-05-06 13:52 | 53.50616 | 25.64256 | 27383 ft | 438 kts | 59° |
| 2026-05-06 13:52 | 53.52202 | 25.68574 | 26739 ft | 437 kts | 59° |
| 2026-05-06 13:52 | 53.53798 | 25.72927 | 26119 ft | 435 kts | 59° |
| 2026-05-06 13:53 | 53.55367 | 25.77233 | 25524 ft | 431 kts | 60° |
| 2026-05-06 13:53 | 53.56813 | 25.81599 | 24916 ft | 427 kts | 65° |
| 2026-05-06 13:53 | 53.58039 | 25.86171 | 24347 ft | 423 kts | 70° |
| 2026-05-06 13:53 | 53.59037 | 25.90765 | 23796 ft | 418 kts | 73° |
| 2026-05-06 13:54 | 53.59921 | 25.95395 | 23236 ft | 415 kts | 75° |
| 2026-05-06 13:54 | 53.60766 | 26.00040 | 22675 ft | 412 kts | 75° |
| 2026-05-06 13:54 | 53.61597 | 26.04651 | 22138 ft | 410 kts | 75° |
| 2026-05-06 13:54 | 53.62419 | 26.09168 | 21594 ft | 408 kts | 75° |
| 2026-05-06 13:55 | 53.63260 | 26.13747 | 21032 ft | 407 kts | 75° |
| 2026-05-06 13:55 | 53.64098 | 26.18267 | 20477 ft | 405 kts | 74° |
| 2026-05-06 13:55 | 53.64945 | 26.22801 | 19909 ft | 404 kts | 74° |
| 2026-05-06 13:55 | 53.65787 | 26.27307 | 19344 ft | 402 kts | 74° |
| 2026-05-06 13:56 | 53.66625 | 26.31782 | 18778 ft | 401 kts | 75° |
| 2026-05-06 13:56 | 53.67451 | 26.36206 | 18218 ft | 400 kts | 75° |
| 2026-05-06 13:56 | 53.68286 | 26.40685 | 17652 ft | 398 kts | 75° |
| 2026-05-06 13:56 | 53.69109 | 26.45111 | 17091 ft | 397 kts | 75° |
| 2026-05-06 13:57 | 53.69929 | 26.49523 | 16533 ft | 395 kts | 75° |
| 2026-05-06 13:57 | 53.70749 | 26.53948 | 15969 ft | 394 kts | 75° |
| 2026-05-06 13:57 | 53.71563 | 26.58343 | 15406 ft | 392 kts | 75° |
| 2026-05-06 13:57 | 53.72388 | 26.62682 | 14848 ft | 391 kts | 73° |
| 2026-05-06 13:58 | 53.73382 | 26.67011 | 14274 ft | 391 kts | 68° |
| 2026-05-06 13:58 | 53.74637 | 26.71034 | 13716 ft | 391 kts | 60° |
| 2026-05-06 13:58 | 53.76121 | 26.74900 | 13146 ft | 390 kts | 57° |
| 2026-05-06 13:58 | 53.77681 | 26.78592 | 12589 ft | 388 kts | 55° |
| 2026-05-06 13:59 | 53.79271 | 26.82243 | 12023 ft | 387 kts | 55° |
| 2026-05-06 13:59 | 53.80868 | 26.85918 | 11455 ft | 385 kts | 56° |
| 2026-05-06 13:59 | 53.82403 | 26.89625 | 10894 ft | 383 kts | 56° |
| 2026-05-06 13:59 | 53.83901 | 26.93322 | 10344 ft | 381 kts | 57° |
| 2026-05-06 14:00 | 53.85361 | 26.96985 | 10027 ft | 372 kts | 57° |
| 2026-05-06 14:00 | 53.86760 | 27.00521 | 9907 ft | 357 kts | 57° |
| 2026-05-06 14:00 | 53.88134 | 27.03985 | 9566 ft | 352 kts | 57° |
| 2026-05-06 14:00 | 53.89507 | 27.07439 | 9093 ft | 351 kts | 57° |
| 2026-05-06 14:01 | 53.90852 | 27.10823 | 8660 ft | 349 kts | 57° |
| 2026-05-06 14:01 | 53.92213 | 27.14243 | 8227 ft | 347 kts | 57° |
| 2026-05-06 14:01 | 53.93546 | 27.17591 | 7904 ft | 341 kts | 57° |
| 2026-05-06 14:01 | 53.94845 | 27.20857 | 7778 ft | 329 kts | 57° |
| 2026-05-06 14:02 | 53.96122 | 27.24071 | 7408 ft | 326 kts | 57° |
| 2026-05-06 14:02 | 53.97388 | 27.27264 | 6946 ft | 327 kts | 57° |
| 2026-05-06 14:02 | 53.98656 | 27.30467 | 6571 ft | 324 kts | 57° |
| 2026-05-06 14:02 | 53.99885 | 27.33561 | 6458 ft | 313 kts | 57° |
| 2026-05-06 14:03 | 54.01120 | 27.36520 | 6336 ft | 303 kts | 53° |
| 2026-05-06 14:03 | 54.02447 | 27.39275 | 5985 ft | 303 kts | 49° |
| 2026-05-06 14:03 | 54.03842 | 27.41922 | 5726 ft | 295 kts | 48° |
| 2026-05-06 14:03 | 54.05185 | 27.44426 | 5467 ft | 285 kts | 48° |
| 2026-05-06 14:04 | 54.06510 | 27.46912 | 5152 ft | 278 kts | 46° |
| 2026-05-06 14:04 | 54.07962 | 27.48922 | 5005 ft | 264 kts | 27° |
| 2026-05-06 14:04 | 54.09623 | 27.50014 | 4996 ft | 247 kts | 14° |
| 2026-05-06 14:04 | 54.11245 | 27.50709 | 4995 ft | 232 kts | 13° |
| 2026-05-06 14:05 | 54.12711 | 27.51612 | 4997 ft | 220 kts | 33° |
| 2026-05-06 14:05 | 54.13733 | 27.53476 | 5000 ft | 219 kts | 66° |
| 2026-05-06 14:05 | 54.14129 | 27.55962 | 5000 ft | 215 kts | 91° |
| 2026-05-06 14:05 | 54.13942 | 27.58429 | 4997 ft | 210 kts | 111° |
| 2026-05-06 14:06 | 54.13336 | 27.60658 | 4980 ft | 207 kts | 125° |
| 2026-05-06 14:06 | 54.12535 | 27.62692 | 4848 ft | 207 kts | 128° |
| 2026-05-06 14:06 | 54.11720 | 27.64722 | 4643 ft | 206 kts | 127° |
| 2026-05-06 14:06 | 54.10944 | 27.66744 | 4412 ft | 204 kts | 127° |
| 2026-05-06 14:07 | 54.10176 | 27.68782 | 4179 ft | 203 kts | 126° |
| 2026-05-06 14:07 | 54.09417 | 27.70808 | 3946 ft | 202 kts | 127° |
| 2026-05-06 14:07 | 54.08654 | 27.72826 | 3723 ft | 202 kts | 127° |
| 2026-05-06 14:07 | 54.07894 | 27.74825 | 3511 ft | 200 kts | 127° |
| 2026-05-06 14:08 | 54.07132 | 27.76809 | 3379 ft | 198 kts | 127° |
| 2026-05-06 14:08 | 54.06390 | 27.78746 | 3192 ft | 193 kts | 127° |
| 2026-05-06 14:08 | 54.05666 | 27.80626 | 2994 ft | 187 kts | 131° |
| 2026-05-06 14:08 | 54.04806 | 27.82168 | 2995 ft | 173 kts | 144° |
| 2026-05-06 14:09 | 54.03857 | 27.83452 | 2995 ft | 175 kts | 146° |
| 2026-05-06 14:09 | 54.02936 | 27.84787 | 2995 ft | 175 kts | 142° |
| 2026-05-06 14:09 | 54.02052 | 27.86176 | 3000 ft | 173 kts | 142° |
| 2026-05-06 14:09 | 54.01157 | 27.87527 | 2993 ft | 175 kts | 143° |
| 2026-05-06 14:10 | 54.00231 | 27.88916 | 2995 ft | 175 kts | 143° |
| 2026-05-06 14:10 | 53.99308 | 27.90297 | 2942 ft | 178 kts | 143° |
| 2026-05-06 14:10 | 53.98391 | 27.91666 | 2741 ft | 169 kts | 143° |
| 2026-05-06 14:10 | 53.97549 | 27.92922 | 2475 ft | 155 kts | 143° |
| 2026-05-06 14:11 | 53.96752 | 27.94103 | 2290 ft | 152 kts | 144° |
| 2026-05-06 14:11 | 53.95956 | 27.95289 | 2085 ft | 152 kts | 143° |
| 2026-05-06 14:11 | 53.95153 | 27.96486 | 1877 ft | 152 kts | 144° |
| 2026-05-06 14:11 | 53.94359 | 27.97659 | 1669 ft | 152 kts | 143° |
| 2026-05-06 14:12 | 53.93567 | 27.98834 | 1480 ft | 152 kts | 144° |
| 2026-05-06 14:12 | 53.92768 | 28.00006 | 1275 ft | 153 kts | 144° |
| 2026-05-06 14:12 | 53.91957 | 28.01189 | 1215 ft | 159 kts | 145° |
| 2026-05-06 14:12 | 53.91091 | 28.02342 | 1843 ft | 162 kts | 147° |
| 2026-05-06 14:13 | 53.90164 | 28.03565 | 2449 ft | 181 kts | 146° |
| 2026-05-06 14:13 | 53.89158 | 28.04836 | 3121 ft | 187 kts | 147° |
| 2026-05-06 14:13 | 53.88096 | 28.06272 | 3037 ft | 212 kts | 138° |
| 2026-05-06 14:13 | 53.87048 | 28.08225 | 2990 ft | 234 kts | 135° |
| 2026-05-06 14:14 | 53.85835 | 28.10315 | 2993 ft | 263 kts | 140° |
| 2026-05-06 14:14 | 53.84474 | 28.12375 | 2989 ft | 260 kts | 142° |
| 2026-05-06 14:14 | 53.83129 | 28.14411 | 2989 ft | 262 kts | 135° |
| 2026-05-06 14:14 | 53.82205 | 28.17070 | 2993 ft | 269 kts | 109° |
| 2026-05-06 14:15 | 53.82094 | 28.20259 | 2990 ft | 276 kts | 82° |
| 2026-05-06 14:15 | 53.82781 | 28.23329 | 2990 ft | 279 kts | 59° |
| 2026-05-06 14:15 | 53.84086 | 28.25747 | 2993 ft | 281 kts | 37° |
| 2026-05-06 14:15 | 53.85793 | 28.27312 | 2989 ft | 280 kts | 17° |
| 2026-05-06 14:16 | 53.87695 | 28.27724 | 2986 ft | 280 kts | 352° |
| 2026-05-06 14:16 | 53.89554 | 28.26760 | 2996 ft | 276 kts | 330° |
| 2026-05-06 14:16 | 53.91225 | 28.25151 | 2991 ft | 274 kts | 326° |
| 2026-05-06 14:16 | 53.92869 | 28.23554 | 2993 ft | 274 kts | 328° |
| 2026-05-06 14:17 | 53.94546 | 28.22014 | 2993 ft | 274 kts | 329° |
| 2026-05-06 14:17 | 53.96240 | 28.20502 | 2992 ft | 274 kts | 328° |
| 2026-05-06 14:17 | 53.97819 | 28.18733 | 2993 ft | 272 kts | 319° |
| 2026-05-06 14:17 | 53.99254 | 28.16628 | 2994 ft | 271 kts | 314° |
| 2026-05-06 14:18 | 54.00626 | 28.14446 | 2994 ft | 271 kts | 314° |
| 2026-05-06 14:18 | 54.02021 | 28.12274 | 2991 ft | 271 kts | 315° |
| 2026-05-06 14:18 | 54.03444 | 28.10147 | 2993 ft | 271 kts | 316° |
| 2026-05-06 14:18 | 54.04859 | 28.08076 | 2996 ft | 271 kts | 316° |
| 2026-05-06 14:19 | 54.06306 | 28.05951 | 2992 ft | 272 kts | 316° |
| 2026-05-06 14:19 | 54.07730 | 28.03874 | 2994 ft | 271 kts | 316° |
| 2026-05-06 14:19 | 54.09164 | 28.01757 | 2998 ft | 270 kts | 316° |
| 2026-05-06 14:19 | 54.10515 | 27.99650 | 2996 ft | 256 kts | 309° |
| 2026-05-06 14:20 | 54.11425 | 27.97227 | 2997 ft | 233 kts | 284° |
| 2026-05-06 14:20 | 54.11614 | 27.94596 | 2999 ft | 211 kts | 261° |
| 2026-05-06 14:20 | 54.11293 | 27.92234 | 2999 ft | 202 kts | 246° |
| 2026-05-06 14:20 | 54.10670 | 27.90115 | 2997 ft | 202 kts | 235° |
| 2026-05-06 14:21 | 54.09790 | 27.88233 | 2998 ft | 201 kts | 225° |
| 2026-05-06 14:21 | 54.08817 | 27.86556 | 3003 ft | 200 kts | 224° |
| 2026-05-06 14:21 | 54.07877 | 27.84890 | 2993 ft | 186 kts | 225° |
| 2026-05-06 14:21 | 54.06957 | 27.83491 | 2992 ft | 169 kts | 211° |
| 2026-05-06 14:22 | 54.05868 | 27.82869 | 3001 ft | 169 kts | 187° |
| 2026-05-06 14:22 | 54.04724 | 27.83207 | 3008 ft | 168 kts | 155° |
| 2026-05-06 14:22 | 54.03735 | 27.84323 | 2991 ft | 173 kts | 150° |
| 2026-05-06 14:22 | 54.02735 | 27.85477 | 2991 ft | 174 kts | 148° |
| 2026-05-06 14:23 | 54.01768 | 27.86723 | 2997 ft | 174 kts | 146° |
| 2026-05-06 14:23 | 54.00834 | 27.88030 | 2996 ft | 175 kts | 143° |
| 2026-05-06 14:23 | 53.99950 | 27.89350 | 2997 ft | 165 kts | 143° |
| 2026-05-06 14:23 | 53.99061 | 27.90659 | 2877 ft | 169 kts | 143° |
| 2026-05-06 14:24 | 53.98207 | 27.91941 | 2671 ft | 164 kts | 143° |
| 2026-05-06 14:24 | 53.97353 | 27.93214 | 2441 ft | 163 kts | 144° |
| 2026-05-06 14:24 | 53.96500 | 27.94472 | 2217 ft | 163 kts | 143° |
| 2026-05-06 14:24 | 53.95642 | 27.95746 | 2000 ft | 162 kts | 146° |
| 2026-05-06 14:25 | 53.94797 | 27.96995 | 1785 ft | 161 kts | 143° |
| 2026-05-06 14:25 | 53.93959 | 27.98247 | 1568 ft | 160 kts | 145° |
| 2026-05-06 14:25 | 53.93126 | 27.99479 | 1334 ft | 158 kts | 146° |
| 2026-05-06 14:25 | 53.92299 | 28.00663 | 1131 ft | 154 kts | 143° |
| 2026-05-06 14:26 | 53.91502 | 28.01866 | 946 ft | 150 kts | 145° |
| 2026-05-06 14:26 | 53.90725 | 28.03020 | 763 ft | 148 kts | 142° |
| 2026-05-06 14:26 | 53.89971 | 28.04132 | 674 ft | 130 kts | 143° |
| 2026-05-06 14:26 | 53.89429 | 28.04953 | 673 ft | 78 kts | 138° |
| 2026-05-06 14:27 | 53.89137 | 28.05388 | 673 ft | 44 kts | 139° |
| 2026-05-06 14:27 | 53.88918 | 28.05708 | 673 ft | 39 kts | 143° |
| 2026-05-06 14:27 | 53.88689 | 28.05846 | 673 ft | 26 kts | 171° |
| 2026-05-06 14:27 | 53.88656 | 28.05707 | 673 ft | 16 kts | 313° |
| 2026-05-06 14:28 | 53.88732 | 28.05588 | 673 ft | 13 kts | 319° |
| 2026-05-06 14:28 | 53.88802 | 28.05489 | 673 ft | 12 kts | 319° |
| 2026-05-06 14:28 | 53.88864 | 28.05398 | 673 ft | 11 kts | 318° |
| 2026-05-06 14:28 | 53.88918 | 28.05316 | 673 ft | 9 kts | 318° |
| 2026-05-06 14:29 | 53.88966 | 28.05243 | 673 ft | 8 kts | 317° |
| 2026-05-06 14:29 | 53.89014 | 28.05173 | 673 ft | 9 kts | 319° |